sensor_id;sensor_type;location;lat;lon;timestamp;P1;durP1;ratioP1;P2;durP2;ratioP2
6105;SDS011;3083;51.508;7.966;2023-06-26T00:02:12;9.87;;;8.00;;
6105;SDS011;3083;51.508;7.966;2023-06-26T00:04:41;12.47;;;8.80;;
6105;SDS011;3083;51.508;7.966;2023-06-26T00:07:08;11.60;;;8.27;;
6105;SDS011;3083;51.508;7.966;2023-06-26T00:09:35;12.67;;;8.10;;
6105;SDS011;3083;51.508;7.966;2023-06-26T00:12:02;9.97;;;7.63;;
6105;SDS011;3083;51.508;7.966;2023-06-26T00:14:29;13.70;;;8.60;;
6105;SDS011;3083;51.508;7.966;2023-06-26T00:16:57;10.20;;;8.33;;
6105;SDS011;3083;51.508;7.966;2023-06-26T00:19:24;10.50;;;8.27;;
6105;SDS011;3083;51.508;7.966;2023-06-26T00:21:51;13.50;;;8.13;;
6105;SDS011;3083;51.508;7.966;2023-06-26T00:24:18;14.57;;;8.20;;
6105;SDS011;3083;51.508;7.966;2023-06-26T00:26:46;11.63;;;8.37;;
6105;SDS011;3083;51.508;7.966;2023-06-26T00:29:13;10.97;;;7.73;;
6105;SDS011;3083;51.508;7.966;2023-06-26T00:31:40;11.80;;;8.53;;
6105;SDS011;3083;51.508;7.966;2023-06-26T00:34:08;10.53;;;8.17;;
6105;SDS011;3083;51.508;7.966;2023-06-26T00:36:35;11.00;;;8.43;;
6105;SDS011;3083;51.508;7.966;2023-06-26T00:39:02;10.77;;;8.10;;
6105;SDS011;3083;51.508;7.966;2023-06-26T00:41:30;13.07;;;8.47;;
6105;SDS011;3083;51.508;7.966;2023-06-26T00:43:57;14.00;;;8.73;;
6105;SDS011;3083;51.508;7.966;2023-06-26T00:46:24;11.00;;;8.37;;
6105;SDS011;3083;51.508;7.966;2023-06-26T00:48:51;10.70;;;8.30;;
6105;SDS011;3083;51.508;7.966;2023-06-26T00:51:20;10.50;;;7.77;;
6105;SDS011;3083;51.508;7.966;2023-06-26T00:53:47;10.40;;;7.63;;
6105;SDS011;3083;51.508;7.966;2023-06-26T00:56:14;10.93;;;8.00;;
6105;SDS011;3083;51.508;7.966;2023-06-26T00:58:43;11.80;;;8.50;;
6105;SDS011;3083;51.508;7.966;2023-06-26T01:01:10;11.30;;;8.33;;
6105;SDS011;3083;51.508;7.966;2023-06-26T01:03:42;12.73;;;8.53;;
6105;SDS011;3083;51.508;7.966;2023-06-26T01:06:11;12.20;;;8.03;;
6105;SDS011;3083;51.508;7.966;2023-06-26T01:08:41;11.93;;;8.57;;
6105;SDS011;3083;51.508;7.966;2023-06-26T01:11:08;11.30;;;8.40;;
6105;SDS011;3083;51.508;7.966;2023-06-26T01:13:36;10.50;;;7.90;;
6105;SDS011;3083;51.508;7.966;2023-06-26T01:16:04;11.70;;;8.57;;
6105;SDS011;3083;51.508;7.966;2023-06-26T01:18:32;11.00;;;8.10;;
6105;SDS011;3083;51.508;7.966;2023-06-26T01:21:00;10.60;;;8.17;;
6105;SDS011;3083;51.508;7.966;2023-06-26T01:23:30;11.00;;;8.40;;
6105;SDS011;3083;51.508;7.966;2023-06-26T01:26:17;11.20;;;8.43;;
6105;SDS011;3083;51.508;7.966;2023-06-26T01:28:47;11.03;;;8.00;;
6105;SDS011;3083;51.508;7.966;2023-06-26T01:31:16;14.60;;;8.00;;
6105;SDS011;3083;51.508;7.966;2023-06-26T01:33:43;13.60;;;8.20;;
6105;SDS011;3083;51.508;7.966;2023-06-26T01:36:11;9.90;;;7.20;;
6105;SDS011;3083;51.508;7.966;2023-06-26T01:38:38;10.50;;;8.27;;
6105;SDS011;3083;51.508;7.966;2023-06-26T01:41:05;10.60;;;8.00;;
6105;SDS011;3083;51.508;7.966;2023-06-26T01:43:35;10.57;;;8.20;;
6105;SDS011;3083;51.508;7.966;2023-06-26T01:46:09;11.57;;;7.90;;
6105;SDS011;3083;51.508;7.966;2023-06-26T01:48:42;10.60;;;8.33;;
6105;SDS011;3083;51.508;7.966;2023-06-26T01:51:13;12.13;;;8.20;;
6105;SDS011;3083;51.508;7.966;2023-06-26T01:53:44;10.73;;;8.30;;
6105;SDS011;3083;51.508;7.966;2023-06-26T01:56:14;11.00;;;7.60;;
6105;SDS011;3083;51.508;7.966;2023-06-26T01:58:46;11.17;;;8.17;;
6105;SDS011;3083;51.508;7.966;2023-06-26T02:01:14;10.93;;;8.10;;
6105;SDS011;3083;51.508;7.966;2023-06-26T02:03:41;11.57;;;8.03;;
6105;SDS011;3083;51.508;7.966;2023-06-26T02:06:08;12.50;;;8.10;;
6105;SDS011;3083;51.508;7.966;2023-06-26T02:08:35;11.10;;;7.90;;
6105;SDS011;3083;51.508;7.966;2023-06-26T02:11:02;10.03;;;8.00;;
6105;SDS011;3083;51.508;7.966;2023-06-26T02:13:29;17.67;;;8.80;;
6105;SDS011;3083;51.508;7.966;2023-06-26T02:15:57;14.00;;;8.63;;
6105;SDS011;3083;51.508;7.966;2023-06-26T02:18:24;11.03;;;8.03;;
6105;SDS011;3083;51.508;7.966;2023-06-26T02:20:51;11.63;;;8.43;;
6105;SDS011;3083;51.508;7.966;2023-06-26T02:23:17;11.50;;;8.10;;
6105;SDS011;3083;51.508;7.966;2023-06-26T02:25:44;12.37;;;8.23;;
6105;SDS011;3083;51.508;7.966;2023-06-26T02:28:11;10.83;;;7.27;;
6105;SDS011;3083;51.508;7.966;2023-06-26T02:30:38;11.73;;;8.30;;
6105;SDS011;3083;51.508;7.966;2023-06-26T02:33:06;10.40;;;7.57;;
6105;SDS011;3083;51.508;7.966;2023-06-26T02:35:33;12.00;;;7.77;;
6105;SDS011;3083;51.508;7.966;2023-06-26T02:38:00;11.43;;;7.90;;
6105;SDS011;3083;51.508;7.966;2023-06-26T02:40:26;13.27;;;8.03;;
6105;SDS011;3083;51.508;7.966;2023-06-26T02:42:53;12.30;;;8.50;;
6105;SDS011;3083;51.508;7.966;2023-06-26T02:45:20;11.47;;;8.43;;
6105;SDS011;3083;51.508;7.966;2023-06-26T02:47:47;10.07;;;7.77;;
6105;SDS011;3083;51.508;7.966;2023-06-26T02:50:15;12.97;;;7.77;;
6105;SDS011;3083;51.508;7.966;2023-06-26T02:52:42;9.80;;;7.33;;
6105;SDS011;3083;51.508;7.966;2023-06-26T02:55:09;11.50;;;8.23;;
6105;SDS011;3083;51.508;7.966;2023-06-26T02:57:36;11.07;;;8.17;;
6105;SDS011;3083;51.508;7.966;2023-06-26T03:00:03;12.87;;;8.70;;
6105;SDS011;3083;51.508;7.966;2023-06-26T03:02:33;14.80;;;8.70;;
6105;SDS011;3083;51.508;7.966;2023-06-26T03:05:00;11.77;;;8.50;;
6105;SDS011;3083;51.508;7.966;2023-06-26T03:07:29;11.63;;;8.47;;
6105;SDS011;3083;51.508;7.966;2023-06-26T03:09:56;12.70;;;8.90;;
6105;SDS011;3083;51.508;7.966;2023-06-26T03:12:24;11.07;;;7.97;;
6105;SDS011;3083;51.508;7.966;2023-06-26T03:14:51;11.80;;;8.00;;
6105;SDS011;3083;51.508;7.966;2023-06-26T03:17:18;13.73;;;8.80;;
6105;SDS011;3083;51.508;7.966;2023-06-26T03:19:45;14.77;;;8.73;;
6105;SDS011;3083;51.508;7.966;2023-06-26T03:22:11;10.00;;;7.40;;
6105;SDS011;3083;51.508;7.966;2023-06-26T03:24:41;10.80;;;7.53;;
6105;SDS011;3083;51.508;7.966;2023-06-26T03:27:10;12.80;;;8.73;;
6105;SDS011;3083;51.508;7.966;2023-06-26T03:29:37;12.97;;;8.70;;
6105;SDS011;3083;51.508;7.966;2023-06-26T03:32:04;12.60;;;8.63;;
6105;SDS011;3083;51.508;7.966;2023-06-26T03:34:31;12.17;;;9.10;;
6105;SDS011;3083;51.508;7.966;2023-06-26T03:36:57;12.10;;;8.80;;
6105;SDS011;3083;51.508;7.966;2023-06-26T03:39:24;13.60;;;8.03;;
6105;SDS011;3083;51.508;7.966;2023-06-26T03:41:52;16.03;;;8.63;;
6105;SDS011;3083;51.508;7.966;2023-06-26T03:44:20;12.10;;;8.80;;
6105;SDS011;3083;51.508;7.966;2023-06-26T03:46:48;11.57;;;8.70;;
6105;SDS011;3083;51.508;7.966;2023-06-26T03:49:15;12.30;;;8.63;;
6105;SDS011;3083;51.508;7.966;2023-06-26T03:51:42;12.93;;;8.67;;
6105;SDS011;3083;51.508;7.966;2023-06-26T03:54:09;10.60;;;8.00;;
6105;SDS011;3083;51.508;7.966;2023-06-26T03:56:36;10.80;;;8.10;;
6105;SDS011;3083;51.508;7.966;2023-06-26T03:59:04;15.93;;;8.80;;
6105;SDS011;3083;51.508;7.966;2023-06-26T04:01:31;12.13;;;8.83;;
6105;SDS011;3083;51.508;7.966;2023-06-26T04:03:59;12.07;;;9.00;;
6105;SDS011;3083;51.508;7.966;2023-06-26T04:06:26;14.40;;;9.00;;
6105;SDS011;3083;51.508;7.966;2023-06-26T04:08:53;12.13;;;8.23;;
6105;SDS011;3083;51.508;7.966;2023-06-26T04:11:20;10.83;;;8.10;;
6105;SDS011;3083;51.508;7.966;2023-06-26T04:13:47;13.30;;;9.70;;
6105;SDS011;3083;51.508;7.966;2023-06-26T04:16:15;12.70;;;9.53;;
6105;SDS011;3083;51.508;7.966;2023-06-26T04:18:42;11.63;;;8.13;;
6105;SDS011;3083;51.508;7.966;2023-06-26T04:21:10;12.40;;;8.80;;
6105;SDS011;3083;51.508;7.966;2023-06-26T04:23:37;12.17;;;8.80;;
6105;SDS011;3083;51.508;7.966;2023-06-26T04:26:05;12.67;;;8.43;;
6105;SDS011;3083;51.508;7.966;2023-06-26T04:28:32;11.67;;;8.60;;
6105;SDS011;3083;51.508;7.966;2023-06-26T04:30:59;13.10;;;8.73;;
6105;SDS011;3083;51.508;7.966;2023-06-26T04:33:28;13.40;;;8.60;;
6105;SDS011;3083;51.508;7.966;2023-06-26T04:35:55;13.80;;;8.30;;
6105;SDS011;3083;51.508;7.966;2023-06-26T04:38:22;10.53;;;7.97;;
6105;SDS011;3083;51.508;7.966;2023-06-26T04:40:49;12.20;;;8.00;;
6105;SDS011;3083;51.508;7.966;2023-06-26T04:43:16;10.77;;;7.60;;
6105;SDS011;3083;51.508;7.966;2023-06-26T04:45:43;14.47;;;8.17;;
6105;SDS011;3083;51.508;7.966;2023-06-26T04:48:10;16.60;;;8.67;;
6105;SDS011;3083;51.508;7.966;2023-06-26T04:50:39;10.93;;;8.53;;
6105;SDS011;3083;51.508;7.966;2023-06-26T04:53:06;12.80;;;8.03;;
6105;SDS011;3083;51.508;7.966;2023-06-26T04:55:33;11.40;;;8.10;;
6105;SDS011;3083;51.508;7.966;2023-06-26T04:57:59;13.53;;;8.60;;
6105;SDS011;3083;51.508;7.966;2023-06-26T05:00:26;12.40;;;8.50;;
6105;SDS011;3083;51.508;7.966;2023-06-26T05:02:53;10.33;;;7.30;;
6105;SDS011;3083;51.508;7.966;2023-06-26T05:05:25;15.93;;;8.13;;
6105;SDS011;3083;51.508;7.966;2023-06-26T05:07:54;11.13;;;8.23;;
6105;SDS011;3083;51.508;7.966;2023-06-26T05:10:21;9.97;;;7.70;;
6105;SDS011;3083;51.508;7.966;2023-06-26T05:12:49;9.77;;;7.23;;
6105;SDS011;3083;51.508;7.966;2023-06-26T05:15:15;12.57;;;7.70;;
6105;SDS011;3083;51.508;7.966;2023-06-26T05:17:42;14.37;;;7.63;;
6105;SDS011;3083;51.508;7.966;2023-06-26T05:20:09;9.83;;;7.10;;
6105;SDS011;3083;51.508;7.966;2023-06-26T05:22:37;9.43;;;7.37;;
6105;SDS011;3083;51.508;7.966;2023-06-26T05:25:06;10.00;;;7.27;;
6105;SDS011;3083;51.508;7.966;2023-06-26T05:27:36;10.30;;;7.30;;
6105;SDS011;3083;51.508;7.966;2023-06-26T05:30:03;11.30;;;7.47;;
6105;SDS011;3083;51.508;7.966;2023-06-26T05:32:31;10.47;;;7.73;;
6105;SDS011;3083;51.508;7.966;2023-06-26T05:35:00;14.37;;;7.90;;
6105;SDS011;3083;51.508;7.966;2023-06-26T05:37:28;12.40;;;8.47;;
6105;SDS011;3083;51.508;7.966;2023-06-26T05:39:57;15.10;;;8.40;;
6105;SDS011;3083;51.508;7.966;2023-06-26T05:42:25;11.23;;;8.20;;
6105;SDS011;3083;51.508;7.966;2023-06-26T05:44:53;11.63;;;7.87;;
6105;SDS011;3083;51.508;7.966;2023-06-26T05:47:20;10.10;;;7.13;;
6105;SDS011;3083;51.508;7.966;2023-06-26T05:49:47;12.03;;;8.07;;
6105;SDS011;3083;51.508;7.966;2023-06-26T05:52:14;11.37;;;8.20;;
6105;SDS011;3083;51.508;7.966;2023-06-26T05:54:41;11.17;;;7.60;;
6105;SDS011;3083;51.508;7.966;2023-06-26T05:57:09;11.93;;;7.97;;
6105;SDS011;3083;51.508;7.966;2023-06-26T05:59:37;10.43;;;7.93;;
6105;SDS011;3083;51.508;7.966;2023-06-26T06:02:06;10.00;;;7.47;;
6105;SDS011;3083;51.508;7.966;2023-06-26T06:04:33;13.07;;;7.80;;
6105;SDS011;3083;51.508;7.966;2023-06-26T06:07:02;10.80;;;8.30;;
6105;SDS011;3083;51.508;7.966;2023-06-26T06:09:29;9.97;;;7.20;;
6105;SDS011;3083;51.508;7.966;2023-06-26T06:11:56;12.03;;;8.13;;
6105;SDS011;3083;51.508;7.966;2023-06-26T06:14:23;10.80;;;8.30;;
6105;SDS011;3083;51.508;7.966;2023-06-26T06:16:51;11.00;;;8.00;;
6105;SDS011;3083;51.508;7.966;2023-06-26T06:19:18;10.20;;;8.30;;
6105;SDS011;3083;51.508;7.966;2023-06-26T06:21:45;10.20;;;8.03;;
6105;SDS011;3083;51.508;7.966;2023-06-26T06:24:11;10.97;;;7.90;;
6105;SDS011;3083;51.508;7.966;2023-06-26T06:26:39;10.97;;;8.53;;
6105;SDS011;3083;51.508;7.966;2023-06-26T06:29:06;9.03;;;7.23;;
6105;SDS011;3083;51.508;7.966;2023-06-26T06:31:33;12.10;;;8.07;;
6105;SDS011;3083;51.508;7.966;2023-06-26T06:34:01;10.73;;;8.33;;
6105;SDS011;3083;51.508;7.966;2023-06-26T06:36:28;10.07;;;7.63;;
6105;SDS011;3083;51.508;7.966;2023-06-26T06:38:55;11.60;;;8.30;;
6105;SDS011;3083;51.508;7.966;2023-06-26T06:41:22;10.90;;;9.07;;
6105;SDS011;3083;51.508;7.966;2023-06-26T06:43:48;12.00;;;8.30;;
6105;SDS011;3083;51.508;7.966;2023-06-26T06:46:15;12.40;;;9.20;;
6105;SDS011;3083;51.508;7.966;2023-06-26T06:48:42;10.97;;;8.47;;
6105;SDS011;3083;51.508;7.966;2023-06-26T06:51:10;13.00;;;9.83;;
6105;SDS011;3083;51.508;7.966;2023-06-26T06:53:37;11.77;;;9.43;;
6105;SDS011;3083;51.508;7.966;2023-06-26T06:56:04;13.47;;;9.93;;
6105;SDS011;3083;51.508;7.966;2023-06-26T06:58:31;13.93;;;9.40;;
6105;SDS011;3083;51.508;7.966;2023-06-26T07:00:58;13.40;;;10.30;;
6105;SDS011;3083;51.508;7.966;2023-06-26T07:03:27;13.20;;;10.00;;
6105;SDS011;3083;51.508;7.966;2023-06-26T07:05:55;17.17;;;9.70;;
6105;SDS011;3083;51.508;7.966;2023-06-26T07:08:23;16.33;;;10.03;;
6105;SDS011;3083;51.508;7.966;2023-06-26T07:10:50;14.93;;;10.53;;
6105;SDS011;3083;51.508;7.966;2023-06-26T07:13:16;15.47;;;10.37;;
6105;SDS011;3083;51.508;7.966;2023-06-26T07:15:43;13.13;;;10.30;;
6105;SDS011;3083;51.508;7.966;2023-06-26T07:18:12;13.93;;;10.23;;
6105;SDS011;3083;51.508;7.966;2023-06-26T07:20:39;14.83;;;9.87;;
6105;SDS011;3083;51.508;7.966;2023-06-26T07:23:07;16.60;;;9.73;;
6105;SDS011;3083;51.508;7.966;2023-06-26T07:25:35;13.30;;;9.60;;
6105;SDS011;3083;51.508;7.966;2023-06-26T07:28:02;12.90;;;9.57;;
6105;SDS011;3083;51.508;7.966;2023-06-26T07:30:29;18.30;;;10.77;;
6105;SDS011;3083;51.508;7.966;2023-06-26T07:32:56;14.00;;;9.27;;
6105;SDS011;3083;51.508;7.966;2023-06-26T07:35:23;12.47;;;9.50;;
6105;SDS011;3083;51.508;7.966;2023-06-26T07:37:52;14.97;;;8.90;;
6105;SDS011;3083;51.508;7.966;2023-06-26T07:40:19;13.60;;;8.70;;
6105;SDS011;3083;51.508;7.966;2023-06-26T07:42:47;12.60;;;8.17;;
6105;SDS011;3083;51.508;7.966;2023-06-26T07:45:15;12.70;;;7.87;;
6105;SDS011;3083;51.508;7.966;2023-06-26T07:47:42;11.37;;;7.20;;
6105;SDS011;3083;51.508;7.966;2023-06-26T07:50:10;12.63;;;7.60;;
6105;SDS011;3083;51.508;7.966;2023-06-26T07:52:37;12.43;;;6.87;;
6105;SDS011;3083;51.508;7.966;2023-06-26T07:55:04;12.33;;;7.10;;
6105;SDS011;3083;51.508;7.966;2023-06-26T07:57:31;10.50;;;7.33;;
6105;SDS011;3083;51.508;7.966;2023-06-26T07:59:59;9.33;;;7.30;;
6105;SDS011;3083;51.508;7.966;2023-06-26T08:02:26;12.70;;;8.03;;
6105;SDS011;3083;51.508;7.966;2023-06-26T08:04:54;13.03;;;8.03;;
6105;SDS011;3083;51.508;7.966;2023-06-26T08:07:20;13.50;;;8.03;;
6105;SDS011;3083;51.508;7.966;2023-06-26T08:09:47;13.30;;;8.13;;
6105;SDS011;3083;51.508;7.966;2023-06-26T08:12:14;11.90;;;7.50;;
6105;SDS011;3083;51.508;7.966;2023-06-26T08:14:41;12.00;;;8.40;;
6105;SDS011;3083;51.508;7.966;2023-06-26T08:17:09;15.47;;;8.53;;
6105;SDS011;3083;51.508;7.966;2023-06-26T08:19:36;12.77;;;8.93;;
6105;SDS011;3083;51.508;7.966;2023-06-26T08:22:03;15.27;;;9.50;;
6105;SDS011;3083;51.508;7.966;2023-06-26T08:24:30;16.33;;;9.50;;
6105;SDS011;3083;51.508;7.966;2023-06-26T08:26:57;16.40;;;9.80;;
6105;SDS011;3083;51.508;7.966;2023-06-26T08:29:24;13.67;;;9.30;;
6105;SDS011;3083;51.508;7.966;2023-06-26T08:31:50;16.80;;;9.87;;
6105;SDS011;3083;51.508;7.966;2023-06-26T08:34:19;13.60;;;9.40;;
6105;SDS011;3083;51.508;7.966;2023-06-26T08:36:46;15.40;;;10.07;;
6105;SDS011;3083;51.508;7.966;2023-06-26T08:39:13;14.93;;;9.20;;
6105;SDS011;3083;51.508;7.966;2023-06-26T08:41:39;11.90;;;8.83;;
6105;SDS011;3083;51.508;7.966;2023-06-26T08:44:07;21.73;;;9.17;;
6105;SDS011;3083;51.508;7.966;2023-06-26T08:46:34;13.93;;;8.60;;
6105;SDS011;3083;51.508;7.966;2023-06-26T08:49:02;15.47;;;8.80;;
6105;SDS011;3083;51.508;7.966;2023-06-26T08:51:35;13.60;;;8.50;;
6105;SDS011;3083;51.508;7.966;2023-06-26T08:54:06;11.40;;;7.50;;
6105;SDS011;3083;51.508;7.966;2023-06-26T08:56:40;17.17;;;8.77;;
6105;SDS011;3083;51.508;7.966;2023-06-26T08:59:08;13.50;;;8.47;;
6105;SDS011;3083;51.508;7.966;2023-06-26T09:01:37;16.53;;;8.30;;
6105;SDS011;3083;51.508;7.966;2023-06-26T09:04:05;14.60;;;8.00;;
6105;SDS011;3083;51.508;7.966;2023-06-26T09:06:32;13.60;;;8.30;;
6105;SDS011;3083;51.508;7.966;2023-06-26T09:09:00;12.60;;;8.60;;
6105;SDS011;3083;51.508;7.966;2023-06-26T09:11:27;15.20;;;8.60;;
6105;SDS011;3083;51.508;7.966;2023-06-26T09:13:54;14.00;;;9.23;;
6105;SDS011;3083;51.508;7.966;2023-06-26T09:16:23;17.00;;;9.97;;
6105;SDS011;3083;51.508;7.966;2023-06-26T09:18:51;15.27;;;11.10;;
6105;SDS011;3083;51.508;7.966;2023-06-26T09:21:18;14.60;;;9.60;;
6105;SDS011;3083;51.508;7.966;2023-06-26T09:23:45;18.00;;;10.43;;
6105;SDS011;3083;51.508;7.966;2023-06-26T09:26:14;14.37;;;9.83;;
6105;SDS011;3083;51.508;7.966;2023-06-26T09:28:41;14.30;;;10.93;;
6105;SDS011;3083;51.508;7.966;2023-06-26T09:31:09;15.90;;;10.30;;
6105;SDS011;3083;51.508;7.966;2023-06-26T09:33:37;18.57;;;11.63;;
6105;SDS011;3083;51.508;7.966;2023-06-26T09:36:05;20.50;;;14.70;;
6105;SDS011;3083;51.508;7.966;2023-06-26T09:38:33;18.90;;;16.27;;
6105;SDS011;3083;51.508;7.966;2023-06-26T09:41:01;21.60;;;15.50;;
6105;SDS011;3083;51.508;7.966;2023-06-26T09:43:30;20.73;;;16.23;;
6105;SDS011;3083;51.508;7.966;2023-06-26T09:45:57;22.10;;;15.07;;
6105;SDS011;3083;51.508;7.966;2023-06-26T09:48:24;20.63;;;13.93;;
6105;SDS011;3083;51.508;7.966;2023-06-26T09:50:51;20.10;;;14.20;;
6105;SDS011;3083;51.508;7.966;2023-06-26T09:53:20;19.70;;;14.07;;
6105;SDS011;3083;51.508;7.966;2023-06-26T09:55:46;20.93;;;15.17;;
6105;SDS011;3083;51.508;7.966;2023-06-26T09:58:14;19.67;;;13.93;;
6105;SDS011;3083;51.508;7.966;2023-06-26T10:00:44;20.10;;;14.37;;
6105;SDS011;3083;51.508;7.966;2023-06-26T10:03:11;21.00;;;15.70;;
6105;SDS011;3083;51.508;7.966;2023-06-26T10:05:38;25.53;;;16.07;;
6105;SDS011;3083;51.508;7.966;2023-06-26T10:08:06;19.67;;;15.90;;
6105;SDS011;3083;51.508;7.966;2023-06-26T10:10:33;20.93;;;15.10;;
6105;SDS011;3083;51.508;7.966;2023-06-26T10:13:04;19.93;;;16.30;;
6105;SDS011;3083;51.508;7.966;2023-06-26T10:15:34;20.40;;;16.70;;
6105;SDS011;3083;51.508;7.966;2023-06-26T10:18:04;22.23;;;18.17;;
6105;SDS011;3083;51.508;7.966;2023-06-26T10:20:32;25.03;;;18.70;;
6105;SDS011;3083;51.508;7.966;2023-06-26T10:23:00;26.00;;;18.93;;
6105;SDS011;3083;51.508;7.966;2023-06-26T10:25:29;25.00;;;19.40;;
6105;SDS011;3083;51.508;7.966;2023-06-26T10:27:58;23.83;;;16.73;;
6105;SDS011;3083;51.508;7.966;2023-06-26T10:30:29;23.33;;;15.20;;
6105;SDS011;3083;51.508;7.966;2023-06-26T10:32:59;17.47;;;13.07;;
6105;SDS011;3083;51.508;7.966;2023-06-26T10:35:28;19.87;;;13.70;;
6105;SDS011;3083;51.508;7.966;2023-06-26T10:37:59;17.80;;;11.53;;
6105;SDS011;3083;51.508;7.966;2023-06-26T10:40:28;14.50;;;11.30;;
6105;SDS011;3083;51.508;7.966;2023-06-26T10:43:06;15.13;;;10.17;;
6105;SDS011;3083;51.508;7.966;2023-06-26T10:45:34;15.13;;;9.70;;
6105;SDS011;3083;51.508;7.966;2023-06-26T10:48:01;17.67;;;10.70;;
6105;SDS011;3083;51.508;7.966;2023-06-26T10:50:30;17.53;;;12.90;;
6105;SDS011;3083;51.508;7.966;2023-06-26T10:53:13;19.17;;;11.07;;
6105;SDS011;3083;51.508;7.966;2023-06-26T10:55:49;15.43;;;11.03;;
6105;SDS011;3083;51.508;7.966;2023-06-26T10:58:31;14.60;;;10.13;;
6105;SDS011;3083;51.508;7.966;2023-06-26T11:01:17;14.00;;;10.10;;
6105;SDS011;3083;51.508;7.966;2023-06-26T11:03:46;12.47;;;9.77;;
6105;SDS011;3083;51.508;7.966;2023-06-26T11:06:16;16.10;;;10.87;;
6105;SDS011;3083;51.508;7.966;2023-06-26T11:08:45;13.00;;;9.80;;
6105;SDS011;3083;51.508;7.966;2023-06-26T11:11:12;14.10;;;8.70;;
6105;SDS011;3083;51.508;7.966;2023-06-26T11:13:39;12.70;;;8.03;;
6105;SDS011;3083;51.508;7.966;2023-06-26T11:16:06;11.50;;;6.70;;
6105;SDS011;3083;51.508;7.966;2023-06-26T11:18:33;12.37;;;6.30;;
6105;SDS011;3083;51.508;7.966;2023-06-26T11:21:04;10.07;;;5.93;;
6105;SDS011;3083;51.508;7.966;2023-06-26T11:23:36;11.90;;;6.80;;
6105;SDS011;3083;51.508;7.966;2023-06-26T11:26:15;10.57;;;6.93;;
6105;SDS011;3083;51.508;7.966;2023-06-26T11:28:47;13.13;;;7.07;;
6105;SDS011;3083;51.508;7.966;2023-06-26T11:31:24;12.90;;;6.60;;
6105;SDS011;3083;51.508;7.966;2023-06-26T11:33:52;12.13;;;6.70;;
6105;SDS011;3083;51.508;7.966;2023-06-26T11:36:19;9.50;;;6.60;;
6105;SDS011;3083;51.508;7.966;2023-06-26T11:38:53;9.50;;;6.60;;
6105;SDS011;3083;51.508;7.966;2023-06-26T11:41:21;9.77;;;6.23;;
6105;SDS011;3083;51.508;7.966;2023-06-26T11:43:48;9.27;;;5.60;;
6105;SDS011;3083;51.508;7.966;2023-06-26T11:46:16;12.90;;;5.40;;
6105;SDS011;3083;51.508;7.966;2023-06-26T11:48:43;12.67;;;5.37;;
6105;SDS011;3083;51.508;7.966;2023-06-26T11:51:12;7.50;;;5.20;;
6105;SDS011;3083;51.508;7.966;2023-06-26T11:53:39;12.53;;;7.60;;
6105;SDS011;3083;51.508;7.966;2023-06-26T11:56:09;10.00;;;6.30;;
6105;SDS011;3083;51.508;7.966;2023-06-26T12:01:22;11.17;;;5.80;;
6105;SDS011;3083;51.508;7.966;2023-06-26T12:03:50;8.40;;;6.13;;
6105;SDS011;3083;51.508;7.966;2023-06-26T12:06:17;11.77;;;5.70;;
6105;SDS011;3083;51.508;7.966;2023-06-26T12:08:44;11.03;;;5.80;;
6105;SDS011;3083;51.508;7.966;2023-06-26T12:11:12;9.30;;;5.43;;
6105;SDS011;3083;51.508;7.966;2023-06-26T12:13:40;7.10;;;4.87;;
6105;SDS011;3083;51.508;7.966;2023-06-26T12:16:07;7.93;;;4.70;;
6105;SDS011;3083;51.508;7.966;2023-06-26T12:18:34;6.47;;;4.63;;
6105;SDS011;3083;51.508;7.966;2023-06-26T12:21:01;10.60;;;4.30;;
6105;SDS011;3083;51.508;7.966;2023-06-26T12:23:32;11.00;;;4.90;;
6105;SDS011;3083;51.508;7.966;2023-06-26T12:26:15;7.80;;;4.83;;
6105;SDS011;3083;51.508;7.966;2023-06-26T12:28:44;6.87;;;4.40;;
6105;SDS011;3083;51.508;7.966;2023-06-26T12:31:12;9.00;;;5.13;;
6105;SDS011;3083;51.508;7.966;2023-06-26T12:33:40;9.60;;;5.40;;
6105;SDS011;3083;51.508;7.966;2023-06-26T12:36:10;9.27;;;5.30;;
6105;SDS011;3083;51.508;7.966;2023-06-26T12:38:38;8.97;;;6.07;;
6105;SDS011;3083;51.508;7.966;2023-06-26T12:41:05;8.37;;;5.47;;
6105;SDS011;3083;51.508;7.966;2023-06-26T12:43:39;9.30;;;5.40;;
6105;SDS011;3083;51.508;7.966;2023-06-26T12:46:06;9.97;;;6.00;;
6105;SDS011;3083;51.508;7.966;2023-06-26T12:48:36;8.40;;;5.30;;
6105;SDS011;3083;51.508;7.966;2023-06-26T12:51:10;9.60;;;5.90;;
6105;SDS011;3083;51.508;7.966;2023-06-26T12:53:37;11.13;;;6.17;;
6105;SDS011;3083;51.508;7.966;2023-06-26T12:56:05;9.27;;;5.47;;
6105;SDS011;3083;51.508;7.966;2023-06-26T12:58:32;11.83;;;5.93;;
6105;SDS011;3083;51.508;7.966;2023-06-26T13:01:02;7.60;;;5.27;;
6105;SDS011;3083;51.508;7.966;2023-06-26T13:03:30;10.63;;;5.50;;
6105;SDS011;3083;51.508;7.966;2023-06-26T13:05:57;10.50;;;5.03;;
6105;SDS011;3083;51.508;7.966;2023-06-26T13:08:24;9.00;;;4.90;;
6105;SDS011;3083;51.508;7.966;2023-06-26T13:10:51;9.73;;;4.47;;
6105;SDS011;3083;51.508;7.966;2023-06-26T13:13:17;8.23;;;3.93;;
6105;SDS011;3083;51.508;7.966;2023-06-26T13:15:44;7.03;;;4.70;;
6105;SDS011;3083;51.508;7.966;2023-06-26T13:18:13;7.13;;;4.03;;
6105;SDS011;3083;51.508;7.966;2023-06-26T13:20:40;8.70;;;4.50;;
6105;SDS011;3083;51.508;7.966;2023-06-26T13:23:06;6.43;;;3.40;;
6105;SDS011;3083;51.508;7.966;2023-06-26T13:25:33;7.53;;;3.93;;
6105;SDS011;3083;51.508;7.966;2023-06-26T13:28:00;6.60;;;3.40;;
6105;SDS011;3083;51.508;7.966;2023-06-26T13:30:27;8.80;;;3.53;;
6105;SDS011;3083;51.508;7.966;2023-06-26T13:32:54;4.60;;;3.07;;
6105;SDS011;3083;51.508;7.966;2023-06-26T13:35:22;5.60;;;2.97;;
6105;SDS011;3083;51.508;7.966;2023-06-26T13:37:49;6.23;;;3.30;;
6105;SDS011;3083;51.508;7.966;2023-06-26T13:40:16;5.53;;;3.33;;
6105;SDS011;3083;51.508;7.966;2023-06-26T13:42:43;6.30;;;3.03;;
6105;SDS011;3083;51.508;7.966;2023-06-26T13:45:10;14.00;;;2.90;;
6105;SDS011;3083;51.508;7.966;2023-06-26T13:47:37;5.30;;;2.60;;
6105;SDS011;3083;51.508;7.966;2023-06-26T13:50:06;5.17;;;2.50;;
6105;SDS011;3083;51.508;7.966;2023-06-26T13:52:35;4.57;;;2.57;;
6105;SDS011;3083;51.508;7.966;2023-06-26T13:55:03;5.37;;;2.27;;
6105;SDS011;3083;51.508;7.966;2023-06-26T13:57:30;5.17;;;2.50;;
6105;SDS011;3083;51.508;7.966;2023-06-26T13:59:58;9.47;;;2.00;;
6105;SDS011;3083;51.508;7.966;2023-06-26T14:02:24;6.00;;;2.07;;
6105;SDS011;3083;51.508;7.966;2023-06-26T14:04:52;11.87;;;2.20;;
6105;SDS011;3083;51.508;7.966;2023-06-26T14:07:19;6.60;;;2.00;;
6105;SDS011;3083;51.508;7.966;2023-06-26T14:09:47;6.10;;;2.30;;
6105;SDS011;3083;51.508;7.966;2023-06-26T14:12:14;4.50;;;2.07;;
6105;SDS011;3083;51.508;7.966;2023-06-26T14:14:41;4.50;;;2.17;;
6105;SDS011;3083;51.508;7.966;2023-06-26T14:17:07;5.73;;;2.37;;
6105;SDS011;3083;51.508;7.966;2023-06-26T14:19:35;3.90;;;2.20;;
6105;SDS011;3083;51.508;7.966;2023-06-26T14:22:02;13.60;;;2.50;;
6105;SDS011;3083;51.508;7.966;2023-06-26T14:24:29;4.30;;;2.07;;
6105;SDS011;3083;51.508;7.966;2023-06-26T14:26:58;3.10;;;1.83;;
6105;SDS011;3083;51.508;7.966;2023-06-26T14:29:25;4.53;;;2.70;;
6105;SDS011;3083;51.508;7.966;2023-06-26T14:31:51;6.40;;;2.73;;
6105;SDS011;3083;51.508;7.966;2023-06-26T14:34:19;9.00;;;2.63;;
6105;SDS011;3083;51.508;7.966;2023-06-26T14:36:46;5.80;;;2.23;;
6105;SDS011;3083;51.508;7.966;2023-06-26T14:39:12;4.30;;;2.37;;
6105;SDS011;3083;51.508;7.966;2023-06-26T14:41:39;5.40;;;2.30;;
6105;SDS011;3083;51.508;7.966;2023-06-26T14:44:07;6.20;;;2.90;;
6105;SDS011;3083;51.508;7.966;2023-06-26T14:46:36;5.33;;;2.63;;
6105;SDS011;3083;51.508;7.966;2023-06-26T14:49:03;5.27;;;2.60;;
6105;SDS011;3083;51.508;7.966;2023-06-26T14:51:30;7.47;;;2.60;;
6105;SDS011;3083;51.508;7.966;2023-06-26T14:53:57;5.20;;;2.50;;
6105;SDS011;3083;51.508;7.966;2023-06-26T14:56:23;3.67;;;2.40;;
6105;SDS011;3083;51.508;7.966;2023-06-26T14:58:50;4.60;;;2.63;;
6105;SDS011;3083;51.508;7.966;2023-06-26T15:01:18;6.10;;;2.83;;
6105;SDS011;3083;51.508;7.966;2023-06-26T15:03:45;4.50;;;2.37;;
6105;SDS011;3083;51.508;7.966;2023-06-26T15:06:12;4.63;;;2.30;;
6105;SDS011;3083;51.508;7.966;2023-06-26T15:08:39;6.60;;;2.43;;
6105;SDS011;3083;51.508;7.966;2023-06-26T15:11:06;5.57;;;2.30;;